createdAt,value
2019-04-26T00:02:20.275Z,13.20
2019-04-26T00:04:49.234Z,13.30
2019-04-26T00:07:18.784Z,13.40
2019-04-26T00:09:48.230Z,13.40
2019-04-26T00:12:36.262Z,13.40
2019-04-26T00:15:33.519Z,13.40
2019-04-26T00:18:02.940Z,13.30
2019-04-26T00:20:31.711Z,13.30
2019-04-26T00:23:00.614Z,13.20
2019-04-26T00:25:29.470Z,13.00
2019-04-26T00:27:58.270Z,13.00
2019-04-26T00:30:27.100Z,13.00
2019-04-26T00:32:56.398Z,13.00
2019-04-26T00:35:25.266Z,13.00
2019-04-26T00:37:54.378Z,12.90
2019-04-26T00:40:23.483Z,12.90
2019-04-26T00:42:53.197Z,12.90
2019-04-26T00:45:23.442Z,12.90
2019-04-26T00:47:52.516Z,12.90
2019-04-26T00:50:21.713Z,12.90
2019-04-26T00:52:51.568Z,12.90
2019-04-26T00:55:21.956Z,12.80
2019-04-26T00:57:52.088Z,12.70
2019-04-26T01:00:21.858Z,12.70
2019-04-26T01:02:53.810Z,12.70
2019-04-26T01:05:23.087Z,12.60
2019-04-26T01:07:54.187Z,12.60
2019-04-26T01:10:23.775Z,12.50
2019-04-26T01:12:52.916Z,12.50
2019-04-26T01:15:22.918Z,12.50
2019-04-26T01:17:52.076Z,12.30
2019-04-26T01:20:24.612Z,12.20
2019-04-26T01:22:56.482Z,12.10
2019-04-26T01:25:47.579Z,12.00
2019-04-26T01:28:24.414Z,11.90
2019-04-26T01:30:54.699Z,11.80
2019-04-26T01:33:24.092Z,11.80
2019-04-26T01:35:53.285Z,11.80
2019-04-26T01:38:22.214Z,11.80
2019-04-26T01:40:53.853Z,11.60
2019-04-26T01:43:35.380Z,11.50
2019-04-26T01:46:13.791Z,11.30
2019-04-26T01:48:53.839Z,11.20
2019-04-26T01:51:35.079Z,11.10
2019-04-26T01:54:04.263Z,11.00
2019-04-26T01:56:35.689Z,10.90
2019-04-26T01:59:06.578Z,10.80
2019-04-26T02:01:54.255Z,10.70
2019-04-26T02:04:25.712Z,10.60
2019-04-26T02:06:54.698Z,10.60
2019-04-26T02:09:24.309Z,10.70
2019-04-26T02:11:53.478Z,10.80
2019-04-26T02:14:22.839Z,10.70
2019-04-26T02:16:52.759Z,10.60
2019-04-26T02:19:21.798Z,10.60
2019-04-26T02:22:00.224Z,10.70
2019-04-26T02:24:35.571Z,10.90
2019-04-26T02:27:08.186Z,10.90
2019-04-26T02:29:37.039Z,10.90
2019-04-26T02:32:07.866Z,10.80
2019-04-26T02:34:38.200Z,10.80
2019-04-26T02:37:10.254Z,10.70
2019-04-26T02:39:41.262Z,10.70
2019-04-26T02:42:23.355Z,10.60
2019-04-26T02:45:21.964Z,10.50
2019-04-26T02:48:16.818Z,10.40
2019-04-26T02:50:53.014Z,10.30
2019-04-26T02:53:45.060Z,10.20
2019-04-26T02:56:40.709Z,10.20
2019-04-26T02:59:31.758Z,10.10
2019-04-26T03:02:04.292Z,9.90
2019-04-26T03:04:36.416Z,9.80
2019-04-26T03:07:13.078Z,9.80
2019-04-26T03:09:44.384Z,9.80
2019-04-26T03:12:17.604Z,9.80
2019-04-26T03:15:13.172Z,9.90
2019-04-26T03:17:45.684Z,10.00
2019-04-26T03:20:18.526Z,10.10
2019-04-26T03:23:04.987Z,10.20
2019-04-26T03:25:47.559Z,10.10
2019-04-26T03:28:29.607Z,10.10
2019-04-26T03:31:08.919Z,10.00
2019-04-26T03:34:14.681Z,10.00
2019-04-26T03:37:57.548Z,10.00
2019-04-26T03:40:43.221Z,10.00
2019-04-26T03:43:27.002Z,10.00
2019-04-26T03:46:20.989Z,10.00
2019-04-26T03:49:16.388Z,10.10
2019-04-26T03:52:00.440Z,10.00
2019-04-26T03:54:32.135Z,10.00
2019-04-26T03:57:17.085Z,9.90
2019-04-26T04:00:39.317Z,9.80
2019-04-26T04:03:51.144Z,9.80
2019-04-26T04:06:27.419Z,9.90
2019-04-26T04:09:01.437Z,9.90
2019-04-26T04:11:38.640Z,10.00
2019-04-26T04:14:15.922Z,9.90
2019-04-26T04:17:19.346Z,9.90
2019-04-26T04:20:25.640Z,9.90
2019-04-26T04:23:06.369Z,9.70
2019-04-26T04:25:41.482Z,9.70
2019-04-26T04:28:49.970Z,9.60
2019-04-26T04:31:27.827Z,9.50
2019-04-26T04:34:15.445Z,9.50
2019-04-26T04:36:49.416Z,9.30
2019-04-26T04:39:44.847Z,9.30
2019-04-26T04:42:41.247Z,9.30
2019-04-26T04:45:50.929Z,9.30
2019-04-26T04:48:38.254Z,9.40
2019-04-26T04:51:33.671Z,9.40
2019-04-26T04:54:18.348Z,9.50
2019-04-26T04:57:27.183Z,9.50
2019-04-26T05:00:19.047Z,9.60
2019-04-26T05:03:25.476Z,9.70
2019-04-26T05:06:07.754Z,9.70
2019-04-26T05:08:54.040Z,9.80
2019-04-26T05:11:34.563Z,9.80
2019-04-26T05:14:32.705Z,9.90
2019-04-26T05:17:42.802Z,10.00
2019-04-26T05:20:38.433Z,10.10
2019-04-26T05:23:44.647Z,10.10
2019-04-26T05:27:22.651Z,10.10
2019-04-26T05:30:22.086Z,10.20
2019-04-26T05:33:18.659Z,10.20
2019-04-26T05:36:16.386Z,10.30
2019-04-26T05:39:10.154Z,10.40
2019-04-26T05:41:56.158Z,10.50
2019-04-26T05:45:18.267Z,10.60
2019-04-26T05:48:08.451Z,10.70
2019-04-26T05:51:30.590Z,10.80
2019-04-26T05:54:33.947Z,10.80
2019-04-26T05:57:44.263Z,11.00
2019-04-26T06:00:40.710Z,11.00
2019-04-26T06:03:36.706Z,11.10
2019-04-26T06:06:31.191Z,11.20
2019-04-26T06:09:21.038Z,11.30
2019-04-26T06:12:01.831Z,11.40
2019-04-26T06:15:07.478Z,11.50
2019-04-26T06:18:37.863Z,11.50
2019-04-26T06:21:19.050Z,11.60
2019-04-26T06:24:05.865Z,11.80
2019-04-26T06:27:13.776Z,11.90
2019-04-26T06:29:57.082Z,12.10
2019-04-26T06:32:55.932Z,12.20
2019-04-26T06:35:21.490Z,12.30
2019-04-26T06:38:48.058Z,12.40
2019-04-26T06:42:06.074Z,12.40
2019-04-26T06:45:44.412Z,12.60
2019-04-26T06:48:34.538Z,12.70
2019-04-26T06:51:23.266Z,12.80
2019-04-26T06:53:58.596Z,12.90
2019-04-26T06:57:08.869Z,12.90
2019-04-26T06:59:46.759Z,12.80
2019-04-26T07:02:27.355Z,12.80
2019-04-26T07:05:15.290Z,12.80
2019-04-26T07:07:59.498Z,12.90
2019-04-26T07:11:06.994Z,12.90
2019-04-26T07:14:06.914Z,12.90
2019-04-26T07:16:47.992Z,13.00
2019-04-26T07:20:04.363Z,12.90
2019-04-26T07:23:32.432Z,13.00
2019-04-26T07:26:27.458Z,13.20
2019-04-26T07:29:30.386Z,13.50
2019-04-26T07:32:41.227Z,13.50
2019-04-26T07:35:20.492Z,13.60
2019-04-26T07:38:26.632Z,13.80
2019-04-26T07:41:25.638Z,14.00
2019-04-26T07:44:19.331Z,14.20
2019-04-26T07:47:26.378Z,14.40
2019-04-26T07:50:54.042Z,14.40
2019-04-26T07:53:47.815Z,14.40
2019-04-26T07:56:38.398Z,14.60
2019-04-26T07:59:42.270Z,14.90
2019-04-26T08:02:47.219Z,15.30
2019-04-26T08:05:27.775Z,15.60
2019-04-26T08:08:00.179Z,15.90
2019-04-26T08:10:32.072Z,16.00
2019-04-26T08:13:07.934Z,15.80
2019-04-26T08:16:06.766Z,15.30
2019-04-26T08:18:42.760Z,15.50
2019-04-26T08:21:31.980Z,15.70
2019-04-26T08:24:24.322Z,15.80
2019-04-26T08:27:18.694Z,16.00
2019-04-26T08:29:45.006Z,16.30
2019-04-26T08:32:23.366Z,16.70
2019-04-26T08:35:06.164Z,17.20
2019-04-26T08:37:55.473Z,17.80
2019-04-26T08:40:31.080Z,17.90
2019-04-26T08:43:18.328Z,18.20
2019-04-26T08:46:13.026Z,18.10
2019-04-26T08:48:58.103Z,18.20
2019-04-26T08:51:27.999Z,18.10
2019-04-26T08:53:59.242Z,17.90
2019-04-26T08:56:33.406Z,17.80
2019-04-26T08:59:09.346Z,17.80
2019-04-26T09:01:51.379Z,18.00
2019-04-26T09:04:31.531Z,18.90
2019-04-26T09:07:06.412Z,18.70
2019-04-26T09:09:38.863Z,18.20
2019-04-26T09:12:22.549Z,17.90
2019-04-26T09:14:46.107Z,17.60
2019-04-26T09:17:15.019Z,17.00
2019-04-26T09:19:44.010Z,16.60
2019-04-26T09:22:18.531Z,16.20
2019-04-26T09:25:06.462Z,16.10
2019-04-26T09:27:40.378Z,16.10
2019-04-26T09:30:34.178Z,15.80
2019-04-26T09:33:04.805Z,15.40
2019-04-26T09:35:33.694Z,15.20
2019-04-26T09:38:02.633Z,15.10
2019-04-26T09:40:31.470Z,15.20
2019-04-26T09:43:15.009Z,15.00
2019-04-26T09:45:57.479Z,14.80
2019-04-26T09:48:48.487Z,14.80
2019-04-26T09:51:18.305Z,14.40
2019-04-26T09:53:47.073Z,14.30
2019-04-26T09:56:15.930Z,14.40
2019-04-26T09:58:44.807Z,14.40
2019-04-26T10:01:13.767Z,14.30
2019-04-26T10:03:42.635Z,14.20
2019-04-26T10:06:11.553Z,14.10
2019-04-26T10:08:43.305Z,14.10
2019-04-26T10:11:13.807Z,14.20
2019-04-26T10:13:54.148Z,14.30
2019-04-26T10:16:33.517Z,14.20
2019-04-26T10:19:06.371Z,14.10
2019-04-26T10:21:35.228Z,14.20
2019-04-26T10:24:04.062Z,14.10
2019-04-26T10:26:33.116Z,14.00
2019-04-26T10:29:01.887Z,13.90
2019-04-26T10:31:30.775Z,13.70
2019-04-26T10:33:59.606Z,13.70
2019-04-26T10:36:30.149Z,13.40
2019-04-26T10:38:59.728Z,13.10
2019-04-26T10:41:28.747Z,12.80
2019-04-26T10:43:57.517Z,12.60
2019-04-26T10:46:28.319Z,12.50
2019-04-26T10:49:08.222Z,12.50
2019-04-26T10:51:38.723Z,12.50
2019-04-26T10:54:15.742Z,12.50
2019-04-26T10:56:58.815Z,12.30
2019-04-26T10:59:34.047Z,12.40
2019-04-26T11:02:03.808Z,12.60
2019-04-26T11:04:33.045Z,12.60
2019-04-26T11:07:03.243Z,12.50
2019-04-26T11:09:32.414Z,12.50
2019-04-26T11:12:01.275Z,12.50
2019-04-26T11:14:30.267Z,12.40
2019-04-26T11:16:59.142Z,12.40
2019-04-26T11:19:28.047Z,12.40
2019-04-26T11:21:57.095Z,12.30
2019-04-26T11:24:25.882Z,12.30
2019-04-26T11:26:54.709Z,12.30
2019-04-26T11:29:30.229Z,12.30
2019-04-26T11:32:02.646Z,12.30
2019-04-26T11:34:30.266Z,12.40
2019-04-26T11:36:59.202Z,12.40
2019-04-26T11:39:28.312Z,12.40
2019-04-26T11:41:57.268Z,12.60
2019-04-26T11:44:27.528Z,12.80
2019-04-26T11:46:59.330Z,12.70
2019-04-26T11:49:27.361Z,12.70
2019-04-26T11:51:58.684Z,12.90
2019-04-26T11:54:27.544Z,12.90
2019-04-26T11:56:56.341Z,12.80
2019-04-26T11:59:27.126Z,12.60
2019-04-26T12:01:55.630Z,12.40
2019-04-26T12:04:40.499Z,12.30
2019-04-26T12:07:20.842Z,12.40
2019-04-26T12:09:51.704Z,12.50
2019-04-26T12:12:20.519Z,12.60
2019-04-26T12:14:49.369Z,12.50
2019-04-26T12:17:18.210Z,12.20
2019-04-26T12:19:48.137Z,12.10
2019-04-26T12:22:39.483Z,12.10
2019-04-26T12:25:08.364Z,12.00
2019-04-26T12:27:37.463Z,11.90
2019-04-26T12:30:06.919Z,11.90
2019-04-26T12:32:35.707Z,11.90
2019-04-26T12:35:04.863Z,11.80
2019-04-26T12:37:33.767Z,11.80
2019-04-26T12:40:03.175Z,11.90
2019-04-26T12:42:31.982Z,11.80
2019-04-26T12:45:24.490Z,11.60
2019-04-26T12:47:55.980Z,11.40
2019-04-26T12:50:25.004Z,11.50
2019-04-26T12:52:55.599Z,11.40
2019-04-26T12:55:24.602Z,11.20
2019-04-26T12:57:54.034Z,11.30
2019-04-26T13:00:32.933Z,11.10
2019-04-26T13:03:01.197Z,10.90
2019-04-26T13:05:30.115Z,10.70
2019-04-26T13:07:58.951Z,10.70
2019-04-26T13:10:38.386Z,10.70
2019-04-26T13:13:17.730Z,10.50
2019-04-26T13:16:04.083Z,10.40
2019-04-26T13:18:32.994Z,10.40
2019-04-26T13:21:03.017Z,10.30
2019-04-26T13:23:32.664Z,10.30
2019-04-26T13:26:01.925Z,10.20
2019-04-26T13:28:30.772Z,10.10
2019-04-26T13:31:02.224Z,10.00
2019-04-26T13:33:30.314Z,9.90
2019-04-26T13:36:03.253Z,9.80
2019-04-26T13:38:29.934Z,9.80
2019-04-26T13:40:59.815Z,9.80
2019-04-26T13:43:29.342Z,9.80
2019-04-26T13:46:20.507Z,9.80
2019-04-26T13:48:54.343Z,9.80
2019-04-26T13:51:23.490Z,9.70
2019-04-26T13:53:54.368Z,9.70
2019-04-26T13:56:22.980Z,9.60
2019-04-26T13:58:54.263Z,9.60
2019-04-26T14:01:22.410Z,9.50
2019-04-26T14:03:51.385Z,9.40
2019-04-26T14:06:21.173Z,9.30
2019-04-26T14:08:54.009Z,9.10
2019-04-26T14:11:27.916Z,9.00
2019-04-26T14:13:55.392Z,9.10
2019-04-26T14:16:22.803Z,9.10
2019-04-26T14:18:53.537Z,9.20
2019-04-26T14:21:22.754Z,9.20
2019-04-26T14:24:13.503Z,9.10
2019-04-26T14:26:48.405Z,9.00
2019-04-26T14:29:17.157Z,9.00
2019-04-26T14:31:47.312Z,9.00
2019-04-26T14:34:16.574Z,9.00
2019-04-26T14:36:46.036Z,9.00
2019-04-26T14:39:19.403Z,9.10
2019-04-26T14:41:45.472Z,9.20
2019-04-26T14:44:15.655Z,9.20
2019-04-26T14:46:48.855Z,9.20
2019-04-26T14:49:19.312Z,9.20
2019-04-26T14:51:46.967Z,9.30
2019-04-26T14:54:17.100Z,9.40
2019-04-26T14:56:52.050Z,9.50
2019-04-26T14:59:19.213Z,9.50
2019-04-26T15:02:17.223Z,9.50
2019-04-26T15:04:51.162Z,9.60
2019-04-26T15:07:20.091Z,9.80
2019-04-26T15:09:49.131Z,9.90
2019-04-26T15:12:17.907Z,9.90
2019-04-26T15:14:49.356Z,9.90
2019-04-26T15:17:20.137Z,9.80
2019-04-26T15:19:47.756Z,9.70
2019-04-26T15:22:16.570Z,9.60
2019-04-26T15:24:45.846Z,9.60
2019-04-26T15:27:15.341Z,9.40
2019-04-26T15:29:44.403Z,9.30
2019-04-26T15:32:13.230Z,9.30
2019-04-26T15:34:42.038Z,9.40
2019-04-26T15:37:12.810Z,9.50
2019-04-26T15:39:58.379Z,9.50
2019-04-26T15:42:37.014Z,9.50
2019-04-26T15:45:13.387Z,9.40
2019-04-26T15:48:02.185Z,9.30
2019-04-26T15:50:50.247Z,9.30
2019-04-26T15:53:14.526Z,9.30
2019-04-26T15:55:43.657Z,9.20
2019-04-26T15:58:12.710Z,9.10
2019-04-26T16:00:42.869Z,9.10
2019-04-26T16:03:12.831Z,9.10
2019-04-26T16:05:43.320Z,9.00
2019-04-26T16:08:13.068Z,8.90
2019-04-26T16:10:43.042Z,8.80
2019-04-26T16:13:20.731Z,8.80
2019-04-26T16:15:48.575Z,8.90
2019-04-26T16:18:16.990Z,8.90
2019-04-26T16:20:44.698Z,8.90
2019-04-26T16:23:13.606Z,9.00
2019-04-26T16:25:42.885Z,9.00
2019-04-26T16:28:30.974Z,9.00
2019-04-26T16:31:15.002Z,8.90
2019-04-26T16:33:44.853Z,8.90
2019-04-26T16:36:13.680Z,9.00
2019-04-26T16:38:42.446Z,9.00
2019-04-26T16:41:11.344Z,9.10
2019-04-26T16:43:45.171Z,9.10
2019-04-26T16:46:14.712Z,9.20
2019-04-26T16:48:42.562Z,9.20
2019-04-26T16:51:14.467Z,9.10
2019-04-26T16:53:58.835Z,9.10
2019-04-26T16:56:13.310Z,9.20
2019-04-26T16:58:45.415Z,9.20
2019-04-26T17:01:15.115Z,9.20
2019-04-26T17:03:47.855Z,9.20
2019-04-26T17:06:14.572Z,9.20
2019-04-26T17:08:49.998Z,9.20
2019-04-26T17:11:14.193Z,9.30
2019-04-26T17:13:50.683Z,9.30
2019-04-26T17:16:13.698Z,9.30
2019-04-26T17:18:42.777Z,9.30
2019-04-26T17:21:12.773Z,9.30
2019-04-26T17:23:55.259Z,9.40
2019-04-26T17:26:42.691Z,9.40
2019-04-26T17:29:11.670Z,9.40
2019-04-26T17:31:40.511Z,9.40
2019-04-26T17:34:09.289Z,9.50
2019-04-26T17:36:38.106Z,9.50
2019-04-26T17:39:11.035Z,9.60
2019-04-26T17:41:45.124Z,9.60
2019-04-26T17:44:13.289Z,9.70
2019-04-26T17:46:42.442Z,9.70
2019-04-26T17:49:11.398Z,9.80
2019-04-26T17:51:44.146Z,9.80
2019-04-26T17:54:33.558Z,9.70
2019-04-26T17:56:42.251Z,9.80
2019-04-26T17:59:24.179Z,9.70
2019-04-26T18:01:47.687Z,9.60
2019-04-26T18:04:13.286Z,9.60
2019-04-26T18:06:45.393Z,9.60
2019-04-26T18:09:37.662Z,9.60
2019-04-26T18:11:43.862Z,9.60
2019-04-26T18:14:21.362Z,9.60
2019-04-26T18:16:48.158Z,9.60
2019-04-26T18:19:39.745Z,9.60
2019-04-26T18:22:28.384Z,9.60
2019-04-26T18:24:56.674Z,9.60
2019-04-26T18:27:25.598Z,9.50
2019-04-26T18:29:54.382Z,9.50
2019-04-26T18:32:24.479Z,9.60
2019-04-26T18:34:53.699Z,9.60
2019-04-26T18:37:23.138Z,9.60
2019-04-26T18:39:53.476Z,9.50
2019-04-26T18:42:22.358Z,9.50
2019-04-26T18:44:51.234Z,9.50
2019-04-26T18:47:28.351Z,9.60
2019-04-26T18:49:58.384Z,9.60
2019-04-26T18:52:29.798Z,9.60
2019-04-26T18:55:21.386Z,9.60
2019-04-26T18:57:54.734Z,9.60
2019-04-26T19:00:29.071Z,9.50
2019-04-26T19:02:59.987Z,9.40
2019-04-26T19:05:30.238Z,9.40
2019-04-26T19:07:59.306Z,9.30
2019-04-26T19:10:29.277Z,9.20
2019-04-26T19:13:03.215Z,9.20
2019-04-26T19:15:45.201Z,9.20
2019-04-26T19:18:19.645Z,9.20
2019-04-26T19:21:13.730Z,9.20
2019-04-26T19:23:42.587Z,9.30
2019-04-26T19:26:13.581Z,9.30
2019-04-26T19:28:44.386Z,9.30
2019-04-26T19:31:12.867Z,9.30
2019-04-26T19:33:42.793Z,9.30
2019-04-26T19:36:13.711Z,9.30
2019-04-26T19:38:43.729Z,9.30
2019-04-26T19:41:13.455Z,9.30
2019-04-26T19:43:43.592Z,9.30
2019-04-26T19:46:44.369Z,9.30
2019-04-26T19:49:41.984Z,9.30
2019-04-26T19:52:28.559Z,9.30
2019-04-26T19:55:13.702Z,9.20
2019-04-26T19:57:55.262Z,9.20
2019-04-26T20:00:24.256Z,9.20
2019-04-26T20:02:53.111Z,9.20
2019-04-26T20:05:22.561Z,9.10
2019-04-26T20:07:51.834Z,9.00
2019-04-26T20:10:21.290Z,9.00
2019-04-26T20:12:50.133Z,9.10
2019-04-26T20:15:25.879Z,9.20
2019-04-26T20:17:52.396Z,9.20
2019-04-26T20:20:23.918Z,9.30
2019-04-26T20:22:52.842Z,9.30
2019-04-26T20:25:22.353Z,9.30
2019-04-26T20:27:53.755Z,9.20
2019-04-26T20:30:43.251Z,9.10
2019-04-26T20:33:12.198Z,9.00
2019-04-26T20:35:42.406Z,9.00
2019-04-26T20:38:11.904Z,9.00
2019-04-26T20:40:43.555Z,9.00
2019-04-26T20:43:23.233Z,9.00
2019-04-26T20:45:50.634Z,9.00
2019-04-26T20:48:13.503Z,9.00
2019-04-26T20:50:42.354Z,9.10
2019-04-26T20:53:12.019Z,9.00
2019-04-26T20:55:42.649Z,9.00
2019-04-26T20:58:11.826Z,8.90
2019-04-26T21:00:53.484Z,8.90
2019-04-26T21:03:22.735Z,8.90
2019-04-26T21:05:46.098Z,8.90
2019-04-26T21:08:12.718Z,8.90
2019-04-26T21:10:41.850Z,8.90
2019-04-26T21:13:12.233Z,8.90
2019-04-26T21:15:53.515Z,8.90
2019-04-26T21:18:12.334Z,8.90
2019-04-26T21:20:42.500Z,8.90
2019-04-26T21:23:13.257Z,9.00
2019-04-26T21:25:54.182Z,8.90
2019-04-26T21:28:38.105Z,8.90
2019-04-26T21:31:14.531Z,8.90
2019-04-26T21:33:50.254Z,8.90
2019-04-26T21:36:41.063Z,8.90
2019-04-26T21:39:23.862Z,8.90
2019-04-26T21:41:53.247Z,8.90
2019-04-26T21:44:22.146Z,8.90
2019-04-26T21:46:56.184Z,8.80
2019-04-26T21:49:22.221Z,8.80
2019-04-26T21:51:54.126Z,8.70
2019-04-26T21:54:24.870Z,8.70
2019-04-26T21:56:53.803Z,8.60
2019-04-26T21:59:24.286Z,8.50
2019-04-26T22:01:58.840Z,8.50
2019-04-26T22:04:24.461Z,8.50
2019-04-26T22:06:55.557Z,8.40
2019-04-26T22:09:43.235Z,8.40
2019-04-26T22:12:14.656Z,8.50
2019-04-26T22:14:50.526Z,8.40
2019-04-26T22:17:22.639Z,8.40
2019-04-26T22:19:57.637Z,8.40
2019-04-26T22:22:57.847Z,8.40
2019-04-26T22:25:29.194Z,8.40
2019-04-26T22:28:00.511Z,8.30
2019-04-26T22:30:29.682Z,8.40
2019-04-26T22:32:58.644Z,8.40
2019-04-26T22:35:27.594Z,8.40
2019-04-26T22:37:56.571Z,8.40
2019-04-26T22:40:25.369Z,8.40
2019-04-26T22:43:02.875Z,8.30
2019-04-26T22:45:44.146Z,8.30
2019-04-26T22:48:23.192Z,8.30
2019-04-26T22:50:52.117Z,8.40
2019-04-26T22:53:21.494Z,8.30
2019-04-26T22:55:50.770Z,8.30
2019-04-26T22:58:20.683Z,8.30
2019-04-26T23:00:50.307Z,8.30
2019-04-26T23:03:19.742Z,8.30
2019-04-26T23:05:48.814Z,8.30
2019-04-26T23:08:17.975Z,8.40
2019-04-26T23:10:49.806Z,8.30
2019-04-26T23:13:37.827Z,8.30
2019-04-26T23:16:19.729Z,8.30
2019-04-26T23:19:10.618Z,8.30
2019-04-26T23:21:45.460Z,8.40
2019-04-26T23:24:17.484Z,8.30
2019-04-26T23:26:45.347Z,8.30
2019-04-26T23:29:18.096Z,8.30
2019-04-26T23:31:45.167Z,8.30
2019-04-26T23:34:14.342Z,8.30
2019-04-26T23:36:43.737Z,8.30
2019-04-26T23:39:13.330Z,8.30
2019-04-26T23:41:44.523Z,8.40
2019-04-26T23:44:13.290Z,8.40
2019-04-26T23:46:43.261Z,8.40
2019-04-26T23:49:14.336Z,8.40
2019-04-26T23:51:45.765Z,8.40
2019-04-26T23:54:13.833Z,8.40
2019-04-26T23:56:43.762Z,8.30
2019-04-26T23:59:14.979Z,8.30
